Dwight, Kansas
Current Conditions -  °F | °C
As of 2:58 PM on Friday 19 Dec 2014 (Local Time) from KFRI Reporting Station
Overcast Overcast  
Wind Chill: 29°   Ceiling: 1100
Heat Index: 33°   Visibility: 10mi
Dew Point: 33°   Wind: 5mph
Humidity: 99%   Direction: 190°S
Pressure: 30.18"   Gusts: NA
Location:  38.84°N, 96.59°W
Report Text: KFRI 192058Z AUTO 19004KT 10SM BKN011 OVC019 01/01 A3018 RMK AO2 CIG 011V019 SLP229 T00080006 57024
Loading
Personal Weather Stations






























Interactive Weather Map New forecast layout! Learn more

10-Day Weather Forecast

Advertisements
Track Severe Weather on mobile